Time;durP1;ratioP1;P1;durP2;ratioP2;P2;SDS_P1;SDS_P2;PMS_P1;PMS_P2;Temp;Humidity;BMP_temperature;BMP_pressure;BME280_temperature;BME280_humidity;BME280_pressure;Samples;Min_cycle;Max_cycle;Signal;HPM_P1;HPM_P2
2022/12/26 04:19:59;;;;;;;51.90;3.15;;;5.60;99.90;;;;;;4913020;28;86432;-70
2022/12/26 04:46:01;;;;;;;89.05;4.88;;;6.10;99.90;;;;;;4904158;28;86754;-70
2022/12/26 04:51:11;;;;;;;66.05;4.07;;;6.10;99.90;;;;;;4893981;28;89088;-70
2022/12/26 04:53:37;;;;;;;83.18;3.67;;;6.10;99.90;;;;;;4883788;28;86276;-69
2022/12/26 04:56:03;;;;;;;196.50;5.13;;;6.20;99.90;;;;;;4880438;28;87257;-70
2022/12/26 04:58:29;;;;;;;31.63;2.55;;;6.10;99.90;;;;;;4882358;28;86849;-69
2022/12/26 05:09:32;;;;;;;120.13;4.28;;;6.10;99.90;;;;;;4889493;28;87049;-69
2022/12/26 05:11:54;;;;;;;121.85;4.10;;;5.70;99.90;;;;;;4883019;28;87001;-69
2022/12/26 05:14:20;;;;;;;18.23;2.40;;;5.50;99.90;;;;;;4890580;28;87048;-69
2022/12/26 05:30:28;;;;;;;4.45;2.28;;;5.00;99.90;;;;;;4891050;28;88879;-70
2022/12/26 05:35:38;;;;;;;8.25;1.95;;;4.80;99.90;;;;;;4891970;28;87218;-70
2022/12/26 05:38:04;;;;;;;7.43;2.50;;;4.80;99.90;;;;;;4890870;28;87393;-70
2022/12/26 05:40:30;;;;;;;5.05;2.25;;;4.60;99.90;;;;;;4889207;28;86480;-70
2022/12/26 05:42:55;;;;;;;6.07;2.42;;;4.60;99.90;;;;;;4882213;28;88350;-70
2022/12/26 05:45:21;;;;;;;5.82;2.45;;;4.50;99.90;;;;;;4885659;28;86447;-70
2022/12/26 05:47:47;;;;;;;4.20;1.60;;;4.60;99.90;;;;;;4883656;28;87143;-70
2022/12/26 05:50:12;;;;;;;3.25;1.25;;;4.70;99.90;;;;;;4894189;28;86915;-71
2022/12/26 05:52:38;;;;;;;3.00;1.25;;;4.80;99.90;;;;;;4881694;28;86383;-70
2022/12/26 05:55:04;;;;;;;2.10;0.60;;;4.90;99.90;;;;;;4882656;28;86524;-70
2022/12/26 05:57:30;;;;;;;2.28;0.85;;;5.10;99.90;;;;;;4885355;28;88971;-70
2022/12/26 05:59:55;;;;;;;2.92;1.08;;;5.20;99.90;;;;;;4889154;28;87778;-70
2022/12/26 06:02:21;;;;;;;2.92;1.08;;;5.30;99.90;;;;;;4887500;28;87336;-70
2022/12/26 06:04:48;;;;;;;1.65;0.52;;;5.30;99.90;;;;;;4890717;28;86526;-69
2022/12/26 06:07:14;;;;;;;1.70;0.30;;;5.30;99.90;;;;;;4881181;28;87459;-70
2022/12/26 06:09:39;;;;;;;1.10;0.20;;;5.50;99.90;;;;;;4887550;28;87158;-70
2022/12/26 06:12:05;;;;;;;0.80;0.10;;;5.90;99.90;;;;;;4885034;28;86354;-69
2022/12/26 06:14:30;;;;;;;1.20;0.10;;;6.40;99.90;;;;;;4882867;28;89333;-69
2022/12/26 06:16:56;;;;;;;0.68;0.10;;;6.80;99.90;;;;;;4886212;28;86587;-70
2022/12/26 06:19:22;;;;;;;1.25;0.10;;;7.00;99.90;;;;;;4887051;28;86962;-70
2022/12/26 06:21:47;;;;;;;1.25;0.10;;;7.40;97.60;;;;;;4884960;28;88992;-70
2022/12/26 06:24:13;;;;;;;1.02;0.10;;;7.80;96.00;;;;;;4883653;28;86031;-70
2022/12/26 06:26:39;;;;;;;1.50;0.10;;;8.00;94.90;;;;;;4885475;28;86766;-71
2022/12/26 06:29:05;;;;;;;1.80;0.43;;;8.10;94.90;;;;;;4880318;28;87060;-70
2022/12/26 06:31:31;;;;;;;3.03;1.30;;;8.10;94.20;;;;;;4882876;28;87645;-70
2022/12/26 06:33:57;;;;;;;3.33;1.40;;;7.60;93.80;;;;;;4888560;28;86831;-70
2022/12/26 06:36:25;;;;;;;3.58;1.70;;;7.10;94.90;;;;;;4886058;28;87292;-70
2022/12/26 06:38:51;;;;;;;3.83;1.67;;;6.70;96.10;;;;;;4884959;28;86309;-70
2022/12/26 06:41:18;;;;;;;3.63;1.80;;;6.40;97.10;;;;;;4891968;28;87061;-70
2022/12/26 06:43:44;;;;;;;4.30;2.05;;;6.10;98.10;;;;;;4891332;28;86538;-71
2022/12/26 06:46:15;;;;;;;2.78;1.42;;;5.90;99.10;;;;;;4883144;28;87190;-70
2022/12/26 06:48:41;;;;;;;4.45;1.50;;;5.70;99.90;;;;;;4893398;28;86393;-69
2022/12/26 06:51:11;;;;;;;3.97;1.73;;;5.70;99.90;;;;;;4889576;28;86538;-70
2022/12/26 06:53:37;;;;;;;2.97;1.60;;;5.60;99.90;;;;;;4890563;28;86642;-69
2022/12/26 06:56:07;;;;;;;2.55;1.00;;;5.50;99.90;;;;;;4885706;28;88313;-72
2022/12/26 06:58:33;;;;;;;4.47;1.23;;;5.50;99.90;;;;;;4887313;28;87753;-70
2022/12/26 07:01:06;;;;;;;3.65;1.60;;;5.60;99.90;;;;;;4896553;28;87081;-70
2022/12/26 07:03:32;;;;;;;2.35;1.20;;;5.60;99.90;;;;;;4894528;28;87450;-70
2022/12/26 07:06:06;;;;;;;2.83;1.52;;;5.50;99.90;;;;;;4891147;28;87299;-69
2022/12/26 07:08:32;;;;;;;2.83;1.27;;;5.50;99.90;;;;;;4890670;28;86907;-71
2022/12/26 07:10:58;;;;;;;2.42;1.05;;;5.40;99.90;;;;;;4894440;28;86397;-68
2022/12/26 07:13:23;;;;;;;2.78;1.33;;;5.40;99.90;;;;;;4886027;28;86220;-70
2022/12/26 07:15:49;;;;;;;3.40;1.13;;;5.40;99.90;;;;;;4884671;28;87096;-72
2022/12/26 07:18:15;;;;;;;3.28;1.45;;;5.40;99.90;;;;;;4894253;28;86980;-69
2022/12/26 07:20:40;;;;;;;4.82;1.23;;;5.40;99.90;;;;;;4893175;28;87874;-70
2022/12/26 07:23:06;;;;;;;3.05;1.50;;;5.40;99.90;;;;;;4895533;28;86586;-70
2022/12/26 07:25:31;;;;;;;3.63;1.65;;;5.40;99.90;;;;;;4886437;28;87131;-70
2022/12/26 07:27:59;;;;;;;3.40;1.73;;;5.50;99.90;;;;;;4895385;28;86881;-70
2022/12/26 07:30:24;;;;;;;5.13;2.42;;;5.50;99.90;;;;;;4886983;28;87762;-71
2022/12/26 07:32:50;;;;;;;6.07;2.17;;;5.50;99.90;;;;;;4885182;28;86741;-70
2022/12/26 07:35:16;;;;;;;22.42;2.70;;;5.50;99.90;;;;;;4886988;28;87729;-70
2022/12/26 07:37:41;;;;;;;32.33;2.65;;;5.50;99.90;;;;;;4889336;28;86176;-70
2022/12/26 07:40:07;;;;;;;33.58;3.00;;;5.50;99.90;;;;;;4890216;28;88270;-69
2022/12/26 07:42:33;;;;;;;45.53;3.70;;;5.50;99.90;;;;;;4886073;28;87603;-69
2022/12/26 07:44:59;;;;;;;24.58;2.88;;;5.50;99.90;;;;;;4890157;28;88989;-69
2022/12/26 07:47:25;;;;;;;58.92;4.05;;;5.60;99.90;;;;;;4887789;28;87834;-70
2022/12/26 07:49:50;;;;;;;28.77;2.92;;;5.60;99.90;;;;;;4891650;28;87021;-70
2022/12/26 07:52:17;;;;;;;15.00;2.13;;;5.60;99.90;;;;;;4891675;28;86911;-70
2022/12/26 07:54:42;;;;;;;20.60;2.63;;;5.80;99.90;;;;;;4892993;28;88300;-69
2022/12/26 07:57:08;;;;;;;30.98;2.70;;;5.80;99.90;;;;;;4888824;28;86551;-68
2022/12/26 07:59:34;;;;;;;8.70;2.85;;;5.90;99.90;;;;;;4892644;28;86621;-69
2022/12/26 08:02:03;;;;;;;13.77;5.13;;;6.00;99.90;;;;;;4891172;28;87024;-68
2022/12/26 08:04:30;;;;;;;8.18;2.78;;;6.20;99.90;;;;;;4886430;28;87209;-69
2022/12/26 08:06:56;;;;;;;9.93;2.78;;;6.30;99.90;;;;;;4889408;28;87721;-69
2022/12/26 08:09:21;;;;;;;8.73;3.40;;;6.50;99.90;;;;;;4887246;28;88998;-69
2022/12/26 08:11:47;;;;;;;5.18;2.78;;;6.70;99.90;;;;;;4887874;28;89059;-69
2022/12/26 08:14:15;;;;;;;4.40;2.17;;;6.70;99.90;;;;;;4887008;28;87254;-68
2022/12/26 08:16:41;;;;;;;8.15;3.10;;;6.90;99.90;;;;;;4882552;28;86935;-69
2022/12/26 08:19:07;;;;;;;3.30;1.80;;;7.10;99.30;;;;;;4888995;28;87758;-72
2022/12/26 08:21:33;;;;;;;3.45;1.70;;;7.20;99.30;;;;;;4884996;28;86484;-73
2022/12/26 08:23:59;;;;;;;2.67;1.23;;;7.30;98.50;;;;;;4885943;28;87235;-73
2022/12/26 08:26:24;;;;;;;4.38;2.63;;;7.40;99.00;;;;;;4884888;28;86294;-72
2022/12/26 08:28:50;;;;;;;4.25;2.35;;;7.60;98.10;;;;;;4891888;28;86384;-72
2022/12/26 08:31:18;;;;;;;3.60;1.83;;;7.70;96.80;;;;;;4888160;28;88030;-71
2022/12/26 08:33:45;;;;;;;3.25;0.20;;;7.90;97.20;;;;;;4882646;28;88332;-72
2022/12/26 08:36:12;;;;;;;0.95;0.10;;;8.30;93.30;;;;;;4881573;28;87872;-71
2022/12/26 08:38:39;;;;;;;4.05;0.90;;;9.30;90.80;;;;;;4886190;28;86684;-72
2022/12/26 08:41:05;;;;;;;1.80;0.40;;;10.90;84.40;;;;;;4894870;28;87145;-72
2022/12/26 08:43:31;;;;;;;7.43;2.65;;;11.80;77.00;;;;;;4894821;28;87013;-71
2022/12/26 08:46:08;;;;;;;1.63;0.30;;;12.30;73.90;;;;;;4898755;28;86707;-71
2022/12/26 08:48:35;;;;;;;14.63;6.00;;;12.70;70.50;;;;;;4893791;28;86251;-71
2022/12/26 08:51:07;;;;;;;12.38;4.28;;;12.70;70.30;;;;;;4895236;28;85644;-72
2022/12/26 08:53:37;;;;;;;13.57;6.22;;;12.80;70.20;;;;;;4888064;28;86527;-71
2022/12/26 08:56:05;;;;;;;10.20;3.78;;;12.70;69.50;;;;;;4883438;28;86634;-72
2022/12/26 08:58:31;;;;;;;21.13;8.45;;;12.50;70.00;;;;;;4885938;28;87448;-72
2022/12/26 09:01:15;;;;;;;28.08;12.27;;;12.30;71.00;;;;;;4894894;28;86452;-72
2022/12/26 09:03:42;;;;;;;24.17;9.15;;;12.10;70.40;;;;;;4895028;28;86584;-71
2022/12/26 09:06:10;;;;;;;0.90;0.20;;;12.10;71.40;;;;;;4894071;28;87073;-72
2022/12/26 09:08:37;;;;;;;1.10;0.30;;;12.20;70.50;;;;;;4897216;28;86211;-72
2022/12/26 09:11:11;;;;;;;1.80;0.35;;;12.40;70.40;;;;;;4887275;28;86558;-72
2022/12/26 09:13:38;;;;;;;1.85;0.20;;;12.40;70.80;;;;;;4893051;28;86723;-72
2022/12/26 09:16:11;;;;;;;0.95;0.30;;;12.40;69.80;;;;;;4896393;28;87002;-70
2022/12/26 09:18:37;;;;;;;1.00;0.28;;;12.40;68.90;;;;;;4897142;28;86519;-74
2022/12/26 09:21:05;;;;;;;3.20;0.30;;;12.60;68.30;;;;;;4888480;28;86284;-71
2022/12/26 09:23:31;;;;;;;0.82;0.22;;;12.70;68.00;;;;;;4883420;28;88061;-72
2022/12/26 09:26:13;;;;;;;0.75;0.22;;;12.90;66.30;;;;;;4888506;28;87785;-72
2022/12/26 09:28:39;;;;;;;1.10;0.20;;;13.10;65.10;;;;;;4889555;28;86313;-72
2022/12/26 09:31:08;;;;;;;1.88;0.80;;;13.20;67.50;;;;;;4882482;28;87176;-72
2022/12/26 09:33:37;;;;;;;1.80;0.75;;;13.20;72.60;;;;;;4888526;28;87093;-72
2022/12/26 09:36:08;;;;;;;2.15;1.00;;;12.70;75.40;;;;;;4883550;28;87996;-72
2022/12/26 09:38:35;;;;;;;2.78;1.33;;;12.30;78.00;;;;;;4885501;28;86781;-72
2022/12/26 09:41:00;;;;;;;4.20;1.55;;;11.90;79.60;;;;;;4885321;28;85813;-72
2022/12/26 09:43:42;;;;;;;2.08;0.82;;;11.90;81.20;;;;;;4881538;28;87087;-73
2022/12/26 09:46:32;;;;;;;2.92;1.40;;;11.90;81.20;;;;;;4887266;28;87522;-72
2022/12/26 09:49:17;;;;;;;3.03;1.70;;;11.60;82.00;;;;;;4889249;28;87920;-72
2022/12/26 09:51:48;;;;;;;3.10;1.88;;;11.40;83.10;;;;;;4883743;28;87706;-72
2022/12/26 09:54:55;;;;;;;3.25;1.88;;;11.00;84.90;;;;;;4884996;28;86895;-72
2022/12/26 09:57:35;;;;;;;3.38;1.88;;;11.10;85.50;;;;;;4881043;28;88567;-74
2022/12/26 10:00:04;;;;;;;3.17;1.90;;;11.00;86.30;;;;;;4890977;28;87186;-72
2022/12/26 10:02:30;;;;;;;4.45;2.42;;;10.90;87.30;;;;;;4886689;28;86617;-74
2022/12/26 10:04:55;;;;;;;3.65;1.85;;;11.00;86.90;;;;;;4888854;28;87197;-73
2022/12/26 10:07:41;;;;;;;3.13;1.80;;;11.10;88.60;;;;;;4888024;28;86909;-72
2022/12/26 10:10:15;;;;;;;2.92;1.60;;;11.10;87.30;;;;;;4887133;28;87488;-73
2022/12/26 10:13:11;;;;;;;3.97;1.70;;;11.10;87.80;;;;;;4885938;28;86462;-73
2022/12/26 10:16:06;;;;;;;3.22;1.48;;;11.20;88.10;;;;;;4884599;28;88155;-72
2022/12/26 10:18:57;;;;;;;2.70;1.70;;;11.20;88.70;;;;;;4893436;28;87896;-73
2022/12/26 10:21:38;;;;;;;3.10;1.63;;;11.20;88.30;;;;;;4885318;28;86386;-73
2022/12/26 10:24:17;;;;;;;2.83;1.58;;;11.30;89.40;;;;;;4896386;28;87035;-72
2022/12/26 10:26:48;;;;;;;5.95;1.58;;;11.40;88.90;;;;;;4889907;28;87506;-73
2022/12/26 10:29:37;;;;;;;3.50;1.60;;;11.60;88.20;;;;;;4883642;28;86970;-72
2022/12/26 10:32:20;;;;;;;4.03;2.20;;;11.50;88.60;;;;;;4894129;28;86876;-72
2022/12/26 10:34:48;;;;;;;3.33;1.60;;;11.60;89.90;;;;;;4888003;28;85714;-73
2022/12/26 10:37:37;;;;;;;3.38;1.58;;;11.60;90.10;;;;;;4889800;28;86918;-73
2022/12/26 10:40:02;;;;;;;4.45;2.28;;;11.50;90.30;;;;;;4888235;28;86896;-73
2022/12/26 10:43:10;;;;;;;3.65;1.80;;;11.40;90.60;;;;;;4887798;28;87483;-73
2022/12/26 10:45:44;;;;;;;4.32;2.40;;;11.40;90.50;;;;;;4887303;28;86749;-73
2022/12/26 10:48:13;;;;;;;3.78;2.40;;;11.30;90.90;;;;;;4889939;28;87249;-72
2022/12/26 10:50:44;;;;;;;3.97;2.35;;;11.30;91.00;;;;;;4888353;28;86258;-72
2022/12/26 10:53:12;;;;;;;4.43;1.80;;;11.30;91.20;;;;;;4890932;28;86918;-73
2022/12/26 10:55:37;;;;;;;4.22;2.05;;;11.10;91.80;;;;;;4886437;28;86301;-73
2022/12/26 10:58:33;;;;;;;10.32;2.00;;;11.20;91.70;;;;;;4891445;28;86560;-72
2022/12/26 11:01:27;;;;;;;7.13;3.08;;;11.00;92.30;;;;;;4893257;28;86983;-73
2022/12/26 11:03:58;;;;;;;5.82;2.80;;;10.90;92.50;;;;;;4893007;28;86334;-73
2022/12/26 11:06:50;;;;;;;4.82;2.67;;;10.90;92.60;;;;;;4899036;28;86644;-72
2022/12/26 11:09:41;;;;;;;7.47;2.80;;;10.80;93.00;;;;;;4898771;28;87509;-72
2022/12/26 11:12:20;;;;;;;5.35;2.67;;;10.80;93.10;;;;;;4889439;28;87148;-72
2022/12/26 11:14:46;;;;;;;7.82;3.30;;;10.70;93.20;;;;;;4888683;28;86490;-73
2022/12/26 11:17:24;;;;;;;6.85;3.35;;;10.70;93.40;;;;;;4897816;28;86645;-72
2022/12/26 11:20:20;;;;;;;7.00;3.08;;;10.70;93.50;;;;;;4889321;28;87755;-73
2022/12/26 11:22:46;;;;;;;6.72;2.70;;;10.60;93.60;;;;;;4893695;28;88221;-73
2022/12/26 11:25:19;;;;;;;6.72;2.97;;;10.60;93.50;;;;;;4899791;28;87152;-73
2022/12/26 11:27:53;;;;;;;6.57;3.47;;;10.60;93.50;;;;;;4888932;28;86167;-73
2022/12/26 11:30:25;;;;;;;5.45;3.15;;;10.70;93.50;;;;;;4890135;28;87711;-73
2022/12/26 11:33:05;;;;;;;4.50;2.20;;;10.70;93.40;;;;;;4893234;28;87149;-72
2022/12/26 11:35:36;;;;;;;7.35;2.40;;;10.70;93.70;;;;;;4883155;28;87342;-72
2022/12/26 11:38:04;;;;;;;5.90;2.50;;;10.80;93.30;;;;;;4888456;28;86851;-73
2022/12/26 11:41:30;;;;;;;4.28;1.88;;;10.80;93.30;;;;;;4887924;28;86926;-73
2022/12/26 11:43:32;;;;;;;5.10;2.75;;;10.60;92.90;;;;;;4892196;28;88149;-73
2022/12/26 11:45:58;;;;;;;6.18;2.90;;;10.50;92.80;;;;;;4902239;28;86275;-73
2022/12/26 11:48:25;;;;;;;4.43;2.10;;;10.40;93.10;;;;;;4893778;28;87596;-73
2022/12/26 11:50:52;;;;;;;4.13;2.20;;;10.40;93.20;;;;;;4899988;28;86992;-73
2022/12/26 11:53:21;;;;;;;4.85;2.35;;;10.20;93.20;;;;;;4889329;28;86976;-73
2022/12/26 11:56:00;;;;;;;6.25;2.30;;;10.10;93.60;;;;;;4901072;28;86470;-73
2022/12/26 11:58:28;;;;;;;4.00;1.70;;;9.90;93.30;;;;;;4893851;28;86297;-73
2022/12/26 12:00:59;;;;;;;4.15;1.60;;;9.80;93.10;;;;;;4891257;28;87520;-73
2022/12/26 12:03:28;;;;;;;2.47;1.30;;;9.80;92.70;;;;;;4886783;28;87140;-73
2022/12/26 12:05:59;;;;;;;3.42;1.55;;;9.80;92.60;;;;;;4888459;28;86355;-73
2022/12/26 12:08:43;;;;;;;3.17;1.30;;;9.90;92.30;;;;;;4894697;28;86838;-73
2022/12/26 12:11:29;;;;;;;2.10;0.80;;;9.90;91.90;;;;;;4892083;28;87800;-73
2022/12/26 12:14:23;;;;;;;7.50;3.53;;;9.90;91.70;;;;;;4897679;28;87143;-73
2022/12/26 12:17:10;;;;;;;3.38;0.98;;;10.00;91.80;;;;;;4892222;28;87114;-73
2022/12/26 12:20:16;;;;;;;3.42;1.13;;;10.10;92.20;;;;;;4893985;28;85663;-73
2022/12/26 12:23:06;;;;;;;6.05;2.40;;;10.20;92.30;;;;;;4894161;28;87255;-73
2022/12/26 12:25:47;;;;;;;4.18;1.75;;;10.20;92.90;;;;;;4887027;28;87075;-73
2022/12/26 12:28:19;;;;;;;5.05;1.70;;;10.30;93.10;;;;;;4893077;28;88098;-73
2022/12/26 12:31:00;;;;;;;4.70;1.55;;;10.20;93.50;;;;;;4892961;28;86573;-72
2022/12/26 12:33:54;;;;;;;3.83;1.48;;;10.30;93.20;;;;;;4886577;28;86781;-73
2022/12/26 12:36:41;;;;;;;3.97;1.83;;;10.40;93.80;;;;;;4893410;28;86799;-73
2022/12/26 12:39:15;;;;;;;6.65;4.05;;;10.50;93.90;;;;;;4895347;28;86296;-73
2022/12/26 12:41:56;;;;;;;5.45;2.58;;;10.70;94.30;;;;;;4891414;28;86364;-72
2022/12/26 12:44:37;;;;;;;5.20;2.33;;;10.80;94.80;;;;;;4890448;28;87394;-73
2022/12/26 12:47:26;;;;;;;5.10;2.40;;;10.80;94.50;;;;;;4886037;28;86976;-72
2022/12/26 12:50:23;;;;;;;5.55;1.60;;;10.80;94.80;;;;;;4887898;28;87076;-73
2022/12/26 12:53:26;;;;;;;7.70;3.28;;;10.80;95.50;;;;;;4889355;28;86418;-73
2022/12/26 12:56:15;;;;;;;6.38;2.95;;;10.90;95.70;;;;;;4897997;28;87978;-72
2022/12/26 12:58:46;;;;;;;10.48;4.05;;;11.00;95.70;;;;;;4882088;28;87090;-72
2022/12/26 13:01:19;;;;;;;4.45;2.22;;;11.10;95.60;;;;;;4897778;28;86509;-72
2022/12/26 13:04:12;;;;;;;5.53;2.30;;;11.10;96.00;;;;;;4891640;28;86283;-72
2022/12/26 13:06:46;;;;;;;5.20;2.00;;;11.20;96.40;;;;;;4892664;28;86546;-73
2022/12/26 13:09:20;;;;;;;4.30;2.15;;;11.20;96.30;;;;;;4888074;28;86327;-71
2022/12/26 13:12:01;;;;;;;6.15;1.90;;;11.30;96.60;;;;;;4888721;28;87162;-73
2022/12/26 13:14:35;;;;;;;6.03;2.83;;;11.40;96.80;;;;;;4890323;28;86048;-74
2022/12/26 13:17:15;;;;;;;5.68;2.60;;;11.50;96.70;;;;;;4884311;28;87466;-74
2022/12/26 13:19:53;;;;;;;6.05;2.70;;;11.60;97.20;;;;;;4880936;28;87958;-73
2022/12/26 13:22:26;;;;;;;7.28;2.50;;;11.60;97.50;;;;;;4887755;28;87980;-73
2022/12/26 13:24:57;;;;;;;6.15;2.50;;;11.50;97.60;;;;;;4886570;28;87422;-73
2022/12/26 13:27:35;;;;;;;7.88;3.72;;;11.60;97.80;;;;;;4884910;28;87399;-72
2022/12/26 13:30:10;;;;;;;8.27;3.60;;;11.60;98.10;;;;;;4889575;28;87282;-72
2022/12/26 13:32:36;;;;;;;7.63;3.70;;;11.50;98.30;;;;;;4886221;28;86329;-72
2022/12/26 13:35:03;;;;;;;10.82;4.05;;;11.50;98.70;;;;;;4884179;28;86272;-71
2022/12/26 13:37:37;;;;;;;5.40;2.70;;;11.40;98.70;;;;;;4882254;28;87241;-73
2022/12/26 13:40:26;;;;;;;5.75;1.73;;;11.30;99.80;;;;;;4891988;28;86108;-73
2022/12/26 13:45:42;;;;;;;3.50;0.40;;;11.30;99.90;;;;;;4893415;28;86280;-74
2022/12/26 13:48:13;;;;;;;1.95;0.20;;;11.30;99.30;;;;;;4888574;28;88186;-73
2022/12/26 13:50:48;;;;;;;1.25;0.20;;;11.30;98.10;;;;;;4889214;28;88319;-72
2022/12/26 13:53:23;;;;;;;1.45;0.10;;;11.30;97.90;;;;;;4892453;28;86797;-72
2022/12/26 13:56:08;;;;;;;1.15;0.10;;;11.30;97.90;;;;;;4890052;28;86783;-71
2022/12/26 13:58:52;;;;;;;1.10;0.20;;;11.30;97.90;;;;;;4888366;28;86878;-71
2022/12/26 14:01:42;;;;;;;0.93;0.10;;;11.30;97.70;;;;;;4887546;28;86258;-72
2022/12/26 14:04:46;;;;;;;3.70;0.10;;;11.30;97.90;;;;;;4889653;28;86550;-73
2022/12/26 14:07:26;;;;;;;2.22;0.10;;;11.40;97.60;;;;;;4884673;28;86454;-72
2022/12/26 14:10:16;;;;;;;0.47;0.10;;;11.30;97.70;;;;;;4884750;28;86951;-73
2022/12/26 14:12:57;;;;;;;0.63;0.10;;;11.30;97.60;;;;;;4893334;28;86435;-71
2022/12/26 14:15:33;;;;;;;1.80;0.20;;;11.20;97.40;;;;;;4885036;28;88040;-71
2022/12/26 14:18:10;;;;;;;1.15;0.10;;;11.30;97.40;;;;;;4896785;28;86345;-72
2022/12/26 14:21:07;;;;;;;1.90;0.30;;;11.30;97.40;;;;;;4893254;28;87363;-72
2022/12/26 14:24:02;;;;;;;2.42;0.35;;;11.30;97.00;;;;;;4890056;28;86676;-71
2022/12/26 14:26:47;;;;;;;2.25;0.38;;;11.20;97.10;;;;;;4871686;28;88223;-73
2022/12/26 14:29:44;;;;;;;4.60;0.43;;;11.20;97.00;;;;;;4891963;28;86977;-71
2022/12/26 14:32:29;;;;;;;3.40;0.40;;;11.10;96.80;;;;;;4887509;28;87069;-72
2022/12/26 14:35:29;;;;;;;0.85;0.15;;;11.10;97.50;;;;;;4887267;28;86886;-73
2022/12/26 14:38:29;;;;;;;0.88;0.20;;;11.10;97.80;;;;;;4872974;28;86860;-71
2022/12/26 14:40:59;;;;;;;1.35;0.25;;;11.00;98.00;;;;;;4887316;28;88363;-72
2022/12/26 14:43:38;;;;;;;0.57;0.10;;;10.90;98.90;;;;;;4886383;28;87766;-73
2022/12/26 14:46:27;;;;;;;0.85;0.10;;;10.80;98.80;;;;;;4889177;28;87092;-72
2022/12/26 14:48:56;;;;;;;1.63;0.20;;;10.80;99.10;;;;;;4894814;28;86820;-72
2022/12/26 14:51:35;;;;;;;2.15;0.15;;;10.80;98.80;;;;;;4892941;28;86737;-73
2022/12/26 14:54:21;;;;;;;1.90;0.52;;;10.80;98.60;;;;;;4888333;28;87065;-73
2022/12/26 14:56:47;;;;;;;1.20;0.22;;;10.80;98.50;;;;;;4888050;28;87284;-72
2022/12/26 14:59:32;;;;;;;0.68;0.10;;;10.80;98.30;;;;;;4885177;28;86574;-73
2022/12/26 15:02:31;;;;;;;1.27;0.10;;;10.80;98.10;;;;;;4889753;28;86322;-73
2022/12/26 15:05:09;;;;;;;0.82;0.10;;;10.90;97.90;;;;;;4892444;28;86682;-73
2022/12/26 15:08:36;;;;;;;1.65;0.28;;;10.90;97.90;;;;;;4890071;28;86767;-73
2022/12/26 15:11:39;;;;;;;1.17;0.10;;;10.90;97.80;;;;;;4826424;29;87762;-73
2022/12/26 15:14:10;;;;;;;1.10;0.10;;;10.90;97.90;;;;;;4839871;29;86341;-73
2022/12/26 15:16:44;;;;;;;2.15;0.20;;;11.00;98.00;;;;;;4874530;28;87265;-73
2022/12/26 15:19:47;;;;;;;0.88;0.10;;;11.00;98.00;;;;;;4893372;28;87218;-73
2022/12/26 15:22:46;;;;;;;2.55;0.45;;;11.00;98.50;;;;;;4890694;28;86768;-73
2022/12/26 15:25:46;;;;;;;1.13;0.28;;;10.90;98.50;;;;;;4891233;28;86948;-73
2022/12/26 15:28:29;;;;;;;1.70;0.30;;;10.90;98.50;;;;;;4893020;28;86603;-73
2022/12/26 15:31:16;;;;;;;0.82;0.20;;;10.80;99.00;;;;;;4884596;28;86943;-73
2022/12/26 15:34:14;;;;;;;2.33;0.30;;;10.90;98.90;;;;;;4896068;28;86670;-73
2022/12/26 15:37:03;;;;;;;1.73;0.30;;;10.80;98.80;;;;;;4900072;28;86378;-74
2022/12/26 15:39:52;;;;;;;4.32;0.88;;;10.80;99.30;;;;;;4888959;28;88157;-73
2022/12/26 15:42:32;;;;;;;2.75;0.75;;;10.80;99.60;;;;;;4891095;28;87187;-73
2022/12/26 15:45:21;;;;;;;4.28;0.70;;;10.70;99.90;;;;;;4894935;28;86224;-73
2022/12/26 15:47:58;;;;;;;3.58;0.73;;;10.70;99.90;;;;;;4899957;28;86429;-73
2022/12/26 15:50:27;;;;;;;5.07;1.00;;;10.60;99.90;;;;;;4894799;28;87139;-73
2022/12/26 15:53:16;;;;;;;3.45;0.57;;;10.60;99.90;;;;;;4892166;28;86907;-73
2022/12/26 15:56:01;;;;;;;2.15;0.57;;;10.70;99.90;;;;;;4858456;28;86839;-73
2022/12/26 15:58:55;;;;;;;3.90;0.60;;;10.70;99.90;;;;;;4897587;28;85885;-73
2022/12/26 16:01:53;;;;;;;1.63;0.15;;;10.70;99.90;;;;;;4888393;28;87234;-73
2022/12/26 16:04:36;;;;;;;2.88;0.82;;;10.60;99.90;;;;;;4853107;28;87052;-72
2022/12/26 16:07:22;;;;;;;1.52;0.10;;;10.70;99.90;;;;;;4888574;28;88019;-72
2022/12/26 16:09:54;;;;;;;10.20;4.20;;;10.70;99.90;;;;;;4898163;28;87290;-72
2022/12/26 16:12:28;;;;;;;4.10;0.75;;;10.70;99.90;;;;;;4889013;28;87533;-71
2022/12/26 16:15:08;;;;;;;7.18;2.55;;;10.70;99.50;;;;;;4889051;28;86820;-72
2022/12/26 16:17:34;;;;;;;2.97;0.82;;;10.60;99.90;;;;;;4900537;28;86618;-72
2022/12/26 16:20:16;;;;;;;1.25;0.10;;;10.60;99.90;;;;;;4893564;28;86456;-72
2022/12/26 16:22:43;;;;;;;1.15;0.10;;;10.50;99.60;;;;;;4896231;28;86803;-72
2022/12/26 16:25:19;;;;;;;3.40;1.08;;;10.40;99.20;;;;;;4890402;28;86206;-72
2022/12/26 16:27:46;;;;;;;1.60;0.30;;;10.50;97.60;;;;;;4896538;28;86784;-72
2022/12/26 16:30:22;;;;;;;2.78;0.52;;;10.40;96.50;;;;;;4885797;28;87556;-72
2022/12/26 16:32:48;;;;;;;3.58;0.38;;;10.40;96.00;;;;;;4887907;28;88239;-72
2022/12/26 16:35:30;;;;;;;1.30;0.22;;;10.30;96.60;;;;;;4891331;28;87641;-72
2022/12/26 16:37:58;;;;;;;0.95;0.00;;;10.30;95.70;;;;;;4896271;28;86216;-72
2022/12/26 16:40:40;;;;;;;9.52;2.05;;;10.30;95.40;;;;;;4896732;28;86937;-72
2022/12/26 16:43:17;;;;;;;1.33;0.20;;;10.30;95.10;;;;;;4892194;28;87209;-72
2022/12/26 16:45:45;;;;;;;3.22;0.95;;;10.30;93.60;;;;;;4891016;28;87024;-72
2022/12/26 16:48:15;;;;;;;1.25;0.10;;;10.40;93.30;;;;;;4891336;28;86392;-72
2022/12/26 16:50:48;;;;;;;1.85;0.20;;;10.30;92.90;;;;;;4894479;28;85863;-72
2022/12/26 16:53:18;;;;;;;2.05;0.35;;;10.40;91.70;;;;;;4888258;28;86629;-72
2022/12/26 16:55:55;;;;;;;5.47;1.20;;;10.50;91.90;;;;;;4882937;28;86426;-71
2022/12/26 16:58:26;;;;;;;0.63;0.20;;;10.60;91.60;;;;;;4892185;28;87768;-72
2022/12/26 17:01:11;;;;;;;2.35;0.10;;;10.60;91.60;;;;;;4889949;28;87571;-72
2022/12/26 17:03:56;;;;;;;2.22;0.40;;;10.70;91.40;;;;;;4888066;28;87289;-71
2022/12/26 17:06:37;;;;;;;2.90;0.63;;;10.60;91.20;;;;;;4888045;28;86652;-72
2022/12/26 17:09:11;;;;;;;1.95;0.22;;;10.70;90.90;;;;;;4886868;28;86852;-72
2022/12/26 17:11:44;;;;;;;2.47;0.55;;;10.80;91.00;;;;;;4885823;28;86948;-72
2022/12/26 17:14:19;;;;;;;2.03;0.38;;;10.70;91.60;;;;;;4890795;28;86538;-72
2022/12/26 17:16:44;;;;;;;1.42;0.03;;;10.70;92.20;;;;;;4891528;28;86184;-72
2022/12/26 17:19:17;;;;;;;1.65;0.43;;;10.50;93.30;;;;;;4888775;28;87689;-72
2022/12/26 17:22:18;;;;;;;3.30;0.82;;;10.20;94.70;;;;;;4888761;28;86328;-72
2022/12/26 17:24:45;;;;;;;0.40;0.00;;;10.00;95.40;;;;;;4889222;28;88244;-72
2022/12/26 17:27:19;;;;;;;0.50;0.10;;;9.90;94.50;;;;;;4893031;28;87201;-72
2022/12/26 17:29:50;;;;;;;6.22;1.48;;;9.80;95.40;;;;;;4891819;28;86846;-72
2022/12/26 17:32:29;;;;;;;5.18;0.68;;;9.70;96.00;;;;;;4887130;28;86419;-72
2022/12/26 17:35:11;;;;;;;0.85;0.08;;;9.70;95.90;;;;;;4883724;28;87061;-72
2022/12/26 17:37:37;;;;;;;0.80;0.10;;;9.70;95.50;;;;;;4889341;28;87003;-72
2022/12/26 17:40:20;;;;;;;0.70;0.10;;;9.70;95.40;;;;;;4889004;28;86754;-72
2022/12/26 17:42:47;;;;;;;1.30;0.20;;;9.60;95.00;;;;;;4896796;28;86047;-72
2022/12/26 17:45:24;;;;;;;4.30;0.55;;;9.70;94.40;;;;;;4884830;28;86938;-72
2022/12/26 17:47:54;;;;;;;2.17;0.30;;;9.70;95.30;;;;;;4881666;28;86637;-72
2022/12/26 17:50:21;;;;;;;1.63;0.20;;;9.70;94.50;;;;;;4890352;28;87800;-72
2022/12/26 17:52:47;;;;;;;4.30;0.95;;;9.70;94.40;;;;;;4893492;28;86862;-72
2022/12/26 17:55:17;;;;;;;4.03;1.23;;;9.70;94.60;;;;;;4889562;28;89337;-72
2022/12/26 17:57:42;;;;;;;1.83;0.50;;;9.70;94.30;;;;;;4886867;28;88267;-72
2022/12/26 18:00:20;;;;;;;2.22;0.57;;;9.70;94.10;;;;;;4891059;28;86949;-71
2022/12/26 18:02:46;;;;;;;1.98;0.38;;;9.90;93.90;;;;;;4887362;28;86943;-71
2022/12/26 18:05:12;;;;;;;3.58;0.90;;;9.90;94.20;;;;;;4890093;28;87326;-72
2022/12/26 18:07:39;;;;;;;2.25;0.47;;;10.00;93.80;;;;;;4882845;28;86796;-72
2022/12/26 18:10:05;;;;;;;0.85;0.00;;;10.10;93.90;;;;;;4890249;28;86782;-72
2022/12/26 18:12:31;;;;;;;2.70;0.68;;;10.10;93.80;;;;;;4895669;28;86774;-72
2022/12/26 18:14:57;;;;;;;0.22;0.03;;;10.20;93.40;;;;;;4894371;28;89101;-72
2022/12/26 18:17:23;;;;;;;2.03;0.47;;;10.20;93.00;;;;;;4892055;28;87331;-72
2022/12/26 18:19:48;;;;;;;2.20;0.20;;;10.30;93.20;;;;;;4886340;28;86319;-72
2022/12/26 18:22:18;;;;;;;1.63;0.43;;;10.40;92.10;;;;;;4888173;28;89247;-72
2022/12/26 18:24:44;;;;;;;1.40;0.32;;;10.40;92.50;;;;;;4889605;28;87388;-72
2022/12/26 18:27:26;;;;;;;6.18;1.27;;;10.40;92.30;;;;;;4887802;28;86996;-71
2022/12/26 18:29:52;;;;;;;1.92;0.10;;;10.50;91.90;;;;;;4893654;28;87079;-71
2022/12/26 18:32:27;;;;;;;2.88;0.75;;;10.60;91.20;;;;;;4893514;28;85955;-71
2022/12/26 18:34:53;;;;;;;0.38;0.00;;;10.70;91.50;;;;;;4890049;28;87260;-72
2022/12/26 18:37:20;;;;;;;3.95;0.57;;;10.80;89.90;;;;;;4895404;28;86838;-72
2022/12/26 18:39:46;;;;;;;2.25;0.63;;;10.80;90.60;;;;;;4892756;28;88221;-71
2022/12/26 18:42:13;;;;;;;0.88;0.17;;;10.70;90.30;;;;;;4895917;28;86245;-71